createdAt,value
2019-06-26T00:00:22.725Z,48.2
2019-06-26T00:10:46.300Z,49.7
2019-06-26T00:21:00.716Z,48.8
2019-06-26T00:31:54.761Z,48.8
2019-06-26T00:42:40.132Z,48.9
2019-06-26T00:53:24.534Z,49.6
2019-06-26T01:03:38.032Z,49.9
2019-06-26T01:13:57.789Z,50.5
2019-06-26T01:24:02.692Z,50.0
2019-06-26T01:34:49.183Z,50.4
2019-06-26T01:45:02.620Z,51.7
2019-06-26T01:55:14.054Z,51.4
2019-06-26T02:05:59.409Z,51.0
2019-06-26T02:16:13.421Z,51.6
2019-06-26T02:26:27.096Z,52.0
2019-06-26T02:37:11.775Z,52.5
2019-06-26T02:47:57.105Z,53.5
2019-06-26T02:58:10.758Z,54.4
2019-06-26T03:08:55.218Z,54.4
2019-06-26T03:19:06.917Z,55.1
2019-06-26T03:29:21.330Z,56.7
2019-06-26T03:39:35.301Z,55.6
2019-06-26T03:49:48.788Z,56.4
2019-06-26T04:00:03.519Z,57.9
2019-06-26T04:10:17.057Z,56.4
2019-06-26T04:20:30.185Z,56.6
2019-06-26T04:46:26.078Z,58.2
2019-06-26T04:56:37.617Z,57.9
2019-06-26T05:06:50.913Z,58.9
2019-06-26T05:17:05.243Z,59.7
2019-06-26T05:27:19.233Z,60.4
2019-06-26T05:37:32.601Z,59.2
2019-06-26T05:47:46.774Z,59.9
2019-06-26T05:58:03.754Z,59.4
2019-06-26T06:08:48.612Z,61.0
2019-06-26T06:19:05.170Z,61.0
2019-06-26T06:29:17.290Z,61.2
2019-06-26T06:40:06.874Z,61.8
2019-06-26T06:50:18.456Z,62.0
2019-06-26T07:01:06.172Z,59.6
2019-06-26T07:11:20.386Z,59.8
2019-06-26T07:21:33.250Z,60.2
2019-06-26T07:31:46.925Z,58.6
2019-06-26T07:42:00.267Z,56.4
2019-06-26T07:52:14.180Z,54.3
2019-06-26T08:02:34.872Z,51.0
2019-06-26T08:12:48.218Z,50.0
2019-06-26T08:23:03.794Z,47.4
2019-06-26T08:33:18.838Z,46.2
2019-06-26T08:43:34.188Z,44.7
2019-06-26T08:54:22.012Z,43.8
2019-06-26T09:04:35.447Z,44.1
2019-06-26T09:14:46.791Z,45.0
2019-06-26T09:25:01.274Z,46.1
2019-06-26T09:35:48.675Z,47.2
2019-06-26T09:46:03.106Z,48.0
2019-06-26T09:56:16.250Z,48.1
2019-06-26T10:06:30.388Z,47.2
2019-06-26T10:17:16.812Z,45.2
2019-06-26T10:27:30.304Z,43.4
2019-06-26T10:38:16.930Z,41.6
2019-06-26T10:48:32.073Z,40.4
2019-06-26T10:58:45.878Z,39.4
2019-06-26T11:08:58.944Z,38.0
2019-06-26T11:19:12.254Z,36.4
2019-06-26T11:29:25.245Z,36.0
2019-06-26T11:39:38.641Z,34.7
2019-06-26T11:49:59.297Z,34.8
2019-06-26T12:00:41.447Z,34.5
2019-06-26T12:10:50.811Z,34.2
2019-06-26T12:21:35.748Z,33.8
2019-06-26T12:31:46.973Z,33.0
2019-06-26T12:42:00.455Z,33.1
2019-06-26T12:52:16.824Z,33.3
2019-06-26T13:02:26.988Z,33.8
2019-06-26T13:12:45.936Z,33.8
2019-06-26T13:22:56.208Z,33.9
2019-06-26T13:33:07.251Z,33.9
2019-06-26T13:43:54.030Z,34.0
2019-06-26T13:54:45.779Z,34.2
2019-06-26T14:04:59.943Z,33.9
2019-06-26T14:15:13.427Z,33.8
2019-06-26T14:25:27.620Z,33.4
2019-06-26T14:35:42.041Z,33.2
2019-06-26T14:45:53.260Z,33.2
2019-06-26T14:56:04.324Z,33.7
2019-06-26T15:06:17.905Z,34.1
2019-06-26T15:16:31.872Z,34.4
2019-06-26T15:26:45.437Z,34.2
2019-06-26T15:36:59.776Z,34.5
2019-06-26T15:47:13.700Z,35.2
2019-06-26T15:57:29.341Z,36.1
2019-06-26T16:07:43.085Z,36.6
2019-06-26T16:17:58.291Z,37.0
2019-06-26T16:28:26.218Z,37.5
2019-06-26T16:39:28.651Z,38.1
2019-06-26T16:50:58.310Z,38.7
2019-06-26T17:02:07.008Z,38.8
2019-06-26T17:13:13.848Z,39.3
2019-06-26T17:25:54.201Z,39.8
2019-06-26T17:36:05.882Z,40.6
2019-06-26T17:46:51.584Z,41.3
2019-06-26T18:28:41.221Z,42.5
2019-06-26T18:59:49.735Z,43.0
2019-06-26T19:11:32.118Z,43.5
2019-06-26T19:27:36.733Z,44.4
2019-06-26T19:53:36.007Z,45.0
2019-06-26T20:42:09.706Z,47.4
2019-06-26T20:57:53.921Z,48.5
2019-06-26T21:09:50.782Z,49.3
2019-06-26T22:47:14.234Z,51.6
2019-06-26T23:05:02.272Z,53.1
2019-06-26T23:25:48.672Z,53.8
2019-06-26T23:52:19.124Z,53.9
